sensor_id;sensor_type;location;lat;lon;timestamp;temperature;humidity
76857;DHT22;66179;44.686;37.628;2022-12-18T00:01:04;13.40;88.62
76857;DHT22;66179;44.686;37.628;2022-12-18T00:03:33;13.41;88.99
76857;DHT22;66179;44.686;37.628;2022-12-18T00:05:59;13.43;89.13
76857;DHT22;66179;44.686;37.628;2022-12-18T00:08:26;13.39;89.05
76857;DHT22;66179;44.686;37.628;2022-12-18T00:10:53;13.40;89.15
76857;DHT22;66179;44.686;37.628;2022-12-18T00:13:20;13.37;89.28
76857;DHT22;66179;44.686;37.628;2022-12-18T00:15:46;13.35;89.68
76857;DHT22;66179;44.686;37.628;2022-12-18T00:18:12;13.30;90.00
76857;DHT22;66179;44.686;37.628;2022-12-18T00:20:39;13.30;90.28
76857;DHT22;66179;44.686;37.628;2022-12-18T00:23:06;13.23;90.19
76857;DHT22;66179;44.686;37.628;2022-12-18T00:25:36;13.23;90.08
76857;DHT22;66179;44.686;37.628;2022-12-18T00:28:03;13.19;90.26
76857;DHT22;66179;44.686;37.628;2022-12-18T00:30:30;13.19;90.32
76857;DHT22;66179;44.686;37.628;2022-12-18T00:32:57;13.20;90.22
76857;DHT22;66179;44.686;37.628;2022-12-18T00:35:25;13.20;90.15
76857;DHT22;66179;44.686;37.628;2022-12-18T00:37:52;13.17;89.83
76857;DHT22;66179;44.686;37.628;2022-12-18T00:40:18;13.17;89.99
76857;DHT22;66179;44.686;37.628;2022-12-18T00:42:45;13.16;90.50
76857;DHT22;66179;44.686;37.628;2022-12-18T00:45:31;13.06;89.58
76857;DHT22;66179;44.686;37.628;2022-12-18T00:47:57;12.99;91.04
76857;DHT22;66179;44.686;37.628;2022-12-18T00:50:25;12.90;90.90
76857;DHT22;66179;44.686;37.628;2022-12-18T00:52:51;12.87;90.79
76857;DHT22;66179;44.686;37.628;2022-12-18T00:55:18;12.81;91.06
76857;DHT22;66179;44.686;37.628;2022-12-18T00:57:46;12.81;90.52
76857;DHT22;66179;44.686;37.628;2022-12-18T01:00:14;12.80;89.96
76857;DHT22;66179;44.686;37.628;2022-12-18T01:02:41;12.77;90.66
76857;DHT22;66179;44.686;37.628;2022-12-18T01:05:09;12.79;90.73
76857;DHT22;66179;44.686;37.628;2022-12-18T01:07:35;12.84;90.34
76857;DHT22;66179;44.686;37.628;2022-12-18T01:10:04;12.85;90.46
76857;DHT22;66179;44.686;37.628;2022-12-18T01:12:31;12.88;90.13
76857;DHT22;66179;44.686;37.628;2022-12-18T01:14:58;12.84;90.50
76857;DHT22;66179;44.686;37.628;2022-12-18T01:17:24;12.87;90.42
76857;DHT22;66179;44.686;37.628;2022-12-18T01:19:51;12.84;90.48
76857;DHT22;66179;44.686;37.628;2022-12-18T01:22:17;12.85;90.44
76857;DHT22;66179;44.686;37.628;2022-12-18T01:24:44;12.85;90.28
76857;DHT22;66179;44.686;37.628;2022-12-18T01:27:11;12.84;90.54
76857;DHT22;66179;44.686;37.628;2022-12-18T01:29:39;12.90;90.61
76857;DHT22;66179;44.686;37.628;2022-12-18T01:32:05;12.77;88.47
76857;DHT22;66179;44.686;37.628;2022-12-18T01:34:32;12.59;88.69
76857;DHT22;66179;44.686;37.628;2022-12-18T01:37:04;12.41;89.34
76857;DHT22;66179;44.686;37.628;2022-12-18T01:39:31;12.30;90.43
76857;DHT22;66179;44.686;37.628;2022-12-18T01:42:18;12.19;89.92
76857;DHT22;66179;44.686;37.628;2022-12-18T01:49:55;11.85;90.32
76857;DHT22;66179;44.686;37.628;2022-12-18T01:52:25;11.73;90.29
76857;DHT22;66179;44.686;37.628;2022-12-18T01:54:54;11.64;90.35
76857;DHT22;66179;44.686;37.628;2022-12-18T01:57:23;11.54;90.91
76857;DHT22;66179;44.686;37.628;2022-12-18T01:59:52;11.42;92.59
76857;DHT22;66179;44.686;37.628;2022-12-18T02:02:20;11.32;92.15
76857;DHT22;66179;44.686;37.628;2022-12-18T02:04:47;11.28;92.66
76857;DHT22;66179;44.686;37.628;2022-12-18T02:07:32;11.23;91.09
76857;DHT22;66179;44.686;37.628;2022-12-18T02:13:09;10.99;92.25
76857;DHT22;66179;44.686;37.628;2022-12-18T02:15:47;10.90;91.66
76857;DHT22;66179;44.686;37.628;2022-12-18T02:18:27;10.96;91.77
76857;DHT22;66179;44.686;37.628;2022-12-18T02:21:08;11.00;91.67
76857;DHT22;66179;44.686;37.628;2022-12-18T02:26:26;10.87;91.27
76857;DHT22;66179;44.686;37.628;2022-12-18T02:29:18;10.88;92.85
76857;DHT22;66179;44.686;37.628;2022-12-18T02:31:52;11.10;95.56
76857;DHT22;66179;44.686;37.628;2022-12-18T02:34:22;11.22;94.69
76857;DHT22;66179;44.686;37.628;2022-12-18T02:36:51;11.28;93.98
76857;DHT22;66179;44.686;37.628;2022-12-18T02:39:21;11.31;93.28
76857;DHT22;66179;44.686;37.628;2022-12-18T02:42:03;11.45;95.01
76857;DHT22;66179;44.686;37.628;2022-12-18T02:44:41;11.51;94.63
76857;DHT22;66179;44.686;37.628;2022-12-18T02:47:11;11.47;94.26
76857;DHT22;66179;44.686;37.628;2022-12-18T02:52:55;11.54;94.49
76857;DHT22;66179;44.686;37.628;2022-12-18T02:58:34;11.76;93.49
76857;DHT22;66179;44.686;37.628;2022-12-18T03:01:19;11.78;93.62
76857;DHT22;66179;44.686;37.628;2022-12-18T03:04:04;11.86;93.28
76857;DHT22;66179;44.686;37.628;2022-12-18T03:06:36;11.98;93.19
76857;DHT22;66179;44.686;37.628;2022-12-18T03:09:09;12.08;93.38
76857;DHT22;66179;44.686;37.628;2022-12-18T03:11:40;12.16;93.08
76857;DHT22;66179;44.686;37.628;2022-12-18T03:14:29;12.21;92.50
76857;DHT22;66179;44.686;37.628;2022-12-18T03:17:00;12.28;92.58
76857;DHT22;66179;44.686;37.628;2022-12-18T03:19:31;12.29;92.64
76857;DHT22;66179;44.686;37.628;2022-12-18T03:22:01;12.32;92.08
76857;DHT22;66179;44.686;37.628;2022-12-18T03:24:37;12.38;92.16
76857;DHT22;66179;44.686;37.628;2022-12-18T03:27:12;12.41;91.94
76857;DHT22;66179;44.686;37.628;2022-12-18T03:29:52;12.42;91.66
76857;DHT22;66179;44.686;37.628;2022-12-18T03:32:31;12.40;91.89
76857;DHT22;66179;44.686;37.628;2022-12-18T03:35:03;12.42;91.50
76857;DHT22;66179;44.686;37.628;2022-12-18T03:37:33;12.45;91.93
76857;DHT22;66179;44.686;37.628;2022-12-18T03:40:01;12.51;92.25
76857;DHT22;66179;44.686;37.628;2022-12-18T03:45:23;12.61;91.45
76857;DHT22;66179;44.686;37.628;2022-12-18T03:50:49;12.63;91.56
76857;DHT22;66179;44.686;37.628;2022-12-18T03:53:49;12.73;91.18
76857;DHT22;66179;44.686;37.628;2022-12-18T03:56:25;12.78;90.69
76857;DHT22;66179;44.686;37.628;2022-12-18T03:58:53;12.82;90.63
76857;DHT22;66179;44.686;37.628;2022-12-18T04:01:43;12.88;90.71
76857;DHT22;66179;44.686;37.628;2022-12-18T04:04:14;12.91;90.55
76857;DHT22;66179;44.686;37.628;2022-12-18T04:06:45;12.93;90.25
76857;DHT22;66179;44.686;37.628;2022-12-18T04:09:13;12.95;90.41
76857;DHT22;66179;44.686;37.628;2022-12-18T04:11:44;12.99;90.27
76857;DHT22;66179;44.686;37.628;2022-12-18T04:14:14;13.03;89.95
76857;DHT22;66179;44.686;37.628;2022-12-18T04:16:41;13.06;89.77
76857;DHT22;66179;44.686;37.628;2022-12-18T04:19:11;13.10;89.76
76857;DHT22;66179;44.686;37.628;2022-12-18T04:21:41;13.15;89.42
76857;DHT22;66179;44.686;37.628;2022-12-18T04:24:10;13.20;89.34
76857;DHT22;66179;44.686;37.628;2022-12-18T04:26:40;13.21;89.06
76857;DHT22;66179;44.686;37.628;2022-12-18T04:29:14;13.25;88.86
76857;DHT22;66179;44.686;37.628;2022-12-18T04:31:41;13.32;88.47
76857;DHT22;66179;44.686;37.628;2022-12-18T04:34:08;13.36;88.28
76857;DHT22;66179;44.686;37.628;2022-12-18T04:36:41;13.45;88.06
76857;DHT22;66179;44.686;37.628;2022-12-18T04:39:07;13.47;88.07
76857;DHT22;66179;44.686;37.628;2022-12-18T04:41:34;13.45;88.22
76857;DHT22;66179;44.686;37.628;2022-12-18T04:44:01;13.49;88.31
76857;DHT22;66179;44.686;37.628;2022-12-18T04:46:28;13.51;88.40
76857;DHT22;66179;44.686;37.628;2022-12-18T04:48:54;13.53;88.32
76857;DHT22;66179;44.686;37.628;2022-12-18T04:51:21;13.56;88.54
76857;DHT22;66179;44.686;37.628;2022-12-18T04:53:47;13.60;88.57
76857;DHT22;66179;44.686;37.628;2022-12-18T04:56:15;13.59;88.54
76857;DHT22;66179;44.686;37.628;2022-12-18T04:58:43;13.60;88.67
76857;DHT22;66179;44.686;37.628;2022-12-18T05:01:11;13.61;88.77
76857;DHT22;66179;44.686;37.628;2022-12-18T05:03:39;13.64;88.61
76857;DHT22;66179;44.686;37.628;2022-12-18T05:06:06;13.66;88.47
76857;DHT22;66179;44.686;37.628;2022-12-18T05:08:33;13.68;88.44
76857;DHT22;66179;44.686;37.628;2022-12-18T05:11:04;13.67;88.51
76857;DHT22;66179;44.686;37.628;2022-12-18T05:13:32;13.69;88.35
76857;DHT22;66179;44.686;37.628;2022-12-18T05:15:58;13.70;88.28
76857;DHT22;66179;44.686;37.628;2022-12-18T05:18:25;13.73;88.24
76857;DHT22;66179;44.686;37.628;2022-12-18T05:20:52;13.73;88.31
76857;DHT22;66179;44.686;37.628;2022-12-18T05:23:20;13.74;88.44
76857;DHT22;66179;44.686;37.628;2022-12-18T05:25:52;13.75;88.51
76857;DHT22;66179;44.686;37.628;2022-12-18T05:28:19;13.76;88.55
76857;DHT22;66179;44.686;37.628;2022-12-18T05:30:53;13.77;88.54
76857;DHT22;66179;44.686;37.628;2022-12-18T05:33:21;13.79;88.75
76857;DHT22;66179;44.686;37.628;2022-12-18T05:35:52;13.81;88.83
76857;DHT22;66179;44.686;37.628;2022-12-18T05:38:19;13.83;88.89
76857;DHT22;66179;44.686;37.628;2022-12-18T05:40:48;13.88;89.02
76857;DHT22;66179;44.686;37.628;2022-12-18T05:43:15;13.91;89.20
76857;DHT22;66179;44.686;37.628;2022-12-18T05:45:41;13.93;89.42
76857;DHT22;66179;44.686;37.628;2022-12-18T05:48:09;13.98;89.64
76857;DHT22;66179;44.686;37.628;2022-12-18T05:50:40;14.01;89.88
76857;DHT22;66179;44.686;37.628;2022-12-18T05:53:07;14.06;90.29
76857;DHT22;66179;44.686;37.628;2022-12-18T05:55:38;14.09;90.63
76857;DHT22;66179;44.686;37.628;2022-12-18T05:58:07;14.12;90.83
76857;DHT22;66179;44.686;37.628;2022-12-18T06:00:36;14.18;90.92
76857;DHT22;66179;44.686;37.628;2022-12-18T06:03:06;14.26;90.75
76857;DHT22;66179;44.686;37.628;2022-12-18T06:05:40;14.34;90.42
76857;DHT22;66179;44.686;37.628;2022-12-18T06:08:08;14.40;89.95
76857;DHT22;66179;44.686;37.628;2022-12-18T06:10:34;14.41;90.12
76857;DHT22;66179;44.686;37.628;2022-12-18T06:13:01;14.47;90.02
76857;DHT22;66179;44.686;37.628;2022-12-18T06:15:28;14.50;90.05
76857;DHT22;66179;44.686;37.628;2022-12-18T06:17:54;14.54;89.78
76857;DHT22;66179;44.686;37.628;2022-12-18T06:20:21;14.60;89.92
76857;DHT22;66179;44.686;37.628;2022-12-18T06:22:48;14.63;89.50
76857;DHT22;66179;44.686;37.628;2022-12-18T06:25:14;14.65;89.68
76857;DHT22;66179;44.686;37.628;2022-12-18T06:27:41;14.68;89.80
76857;DHT22;66179;44.686;37.628;2022-12-18T06:30:08;14.70;89.74
76857;DHT22;66179;44.686;37.628;2022-12-18T06:32:34;14.70;89.87
76857;DHT22;66179;44.686;37.628;2022-12-18T06:35:01;14.72;89.66
76857;DHT22;66179;44.686;37.628;2022-12-18T06:37:27;14.78;89.57
76857;DHT22;66179;44.686;37.628;2022-12-18T06:39:54;14.83;89.56
76857;DHT22;66179;44.686;37.628;2022-12-18T06:42:20;14.85;89.26
76857;DHT22;66179;44.686;37.628;2022-12-18T06:44:50;14.87;89.34
76857;DHT22;66179;44.686;37.628;2022-12-18T06:47:17;14.92;89.24
76857;DHT22;66179;44.686;37.628;2022-12-18T06:49:43;14.94;89.15
76857;DHT22;66179;44.686;37.628;2022-12-18T06:52:10;14.98;89.15
76857;DHT22;66179;44.686;37.628;2022-12-18T06:54:36;15.07;89.04
76857;DHT22;66179;44.686;37.628;2022-12-18T06:57:03;15.03;88.82
76857;DHT22;66179;44.686;37.628;2022-12-18T06:59:30;15.10;88.75
76857;DHT22;66179;44.686;37.628;2022-12-18T07:01:56;15.07;88.44
76857;DHT22;66179;44.686;37.628;2022-12-18T07:04:30;15.04;88.76
76857;DHT22;66179;44.686;37.628;2022-12-18T07:06:57;15.08;88.81
76857;DHT22;66179;44.686;37.628;2022-12-18T07:09:24;15.12;88.67
76857;DHT22;66179;44.686;37.628;2022-12-18T07:11:50;15.16;88.37
76857;DHT22;66179;44.686;37.628;2022-12-18T07:14:17;15.16;88.43
76857;DHT22;66179;44.686;37.628;2022-12-18T07:16:44;15.15;88.59
76857;DHT22;66179;44.686;37.628;2022-12-18T07:19:10;15.13;88.63
76857;DHT22;66179;44.686;37.628;2022-12-18T07:21:36;15.09;88.84
76857;DHT22;66179;44.686;37.628;2022-12-18T07:24:03;15.13;88.95
76857;DHT22;66179;44.686;37.628;2022-12-18T07:26:30;15.16;88.98
76857;DHT22;66179;44.686;37.628;2022-12-18T07:28:57;15.17;88.92
76857;DHT22;66179;44.686;37.628;2022-12-18T07:31:25;15.16;89.09
76857;DHT22;66179;44.686;37.628;2022-12-18T07:33:52;15.19;89.12
76857;DHT22;66179;44.686;37.628;2022-12-18T07:36:19;15.22;88.89
76857;DHT22;66179;44.686;37.628;2022-12-18T07:38:49;15.23;88.89
76857;DHT22;66179;44.686;37.628;2022-12-18T07:41:18;15.18;88.91
76857;DHT22;66179;44.686;37.628;2022-12-18T07:43:45;15.14;89.35
76857;DHT22;66179;44.686;37.628;2022-12-18T07:46:13;15.14;89.57
76857;DHT22;66179;44.686;37.628;2022-12-18T07:48:43;15.09;89.24
76857;DHT22;66179;44.686;37.628;2022-12-18T07:51:10;15.07;89.73
76857;DHT22;66179;44.686;37.628;2022-12-18T07:53:40;15.09;89.59
76857;DHT22;66179;44.686;37.628;2022-12-18T07:56:11;15.13;89.57
76857;DHT22;66179;44.686;37.628;2022-12-18T07:58:38;15.06;89.54
76857;DHT22;66179;44.686;37.628;2022-12-18T08:01:10;15.07;90.01
76857;DHT22;66179;44.686;37.628;2022-12-18T08:03:39;15.08;90.00
76857;DHT22;66179;44.686;37.628;2022-12-18T08:06:07;15.09;89.82
76857;DHT22;66179;44.686;37.628;2022-12-18T08:08:35;15.07;89.84
76857;DHT22;66179;44.686;37.628;2022-12-18T08:11:02;15.02;89.70
76857;DHT22;66179;44.686;37.628;2022-12-18T08:13:28;15.00;89.92
76857;DHT22;66179;44.686;37.628;2022-12-18T08:16:04;14.98;90.08
76857;DHT22;66179;44.686;37.628;2022-12-18T08:18:33;14.97;90.18
76857;DHT22;66179;44.686;37.628;2022-12-18T08:21:19;14.97;90.31
76857;DHT22;66179;44.686;37.628;2022-12-18T08:23:48;14.99;90.41
76857;DHT22;66179;44.686;37.628;2022-12-18T08:26:16;15.03;90.15
76857;DHT22;66179;44.686;37.628;2022-12-18T08:28:43;15.10;90.03
76857;DHT22;66179;44.686;37.628;2022-12-18T08:31:10;15.12;90.01
76857;DHT22;66179;44.686;37.628;2022-12-18T08:33:38;15.16;89.94
76857;DHT22;66179;44.686;37.628;2022-12-18T08:36:06;15.15;89.93
76857;DHT22;66179;44.686;37.628;2022-12-18T08:38:33;15.21;89.89
76857;DHT22;66179;44.686;37.628;2022-12-18T08:41:06;15.22;89.66
76857;DHT22;66179;44.686;37.628;2022-12-18T08:43:34;15.23;89.83
76857;DHT22;66179;44.686;37.628;2022-12-18T08:46:21;15.17;90.08
76857;DHT22;66179;44.686;37.628;2022-12-18T08:48:50;15.12;90.15
76857;DHT22;66179;44.686;37.628;2022-12-18T08:51:19;15.08;90.38
76857;DHT22;66179;44.686;37.628;2022-12-18T08:53:46;15.08;90.42
76857;DHT22;66179;44.686;37.628;2022-12-18T08:56:13;15.12;90.48
76857;DHT22;66179;44.686;37.628;2022-12-18T08:58:41;15.14;90.47
76857;DHT22;66179;44.686;37.628;2022-12-18T09:01:10;15.08;90.25
76857;DHT22;66179;44.686;37.628;2022-12-18T09:03:37;15.01;90.57
76857;DHT22;66179;44.686;37.628;2022-12-18T09:06:04;15.06;90.72
76857;DHT22;66179;44.686;37.628;2022-12-18T09:08:31;15.07;90.88
76857;DHT22;66179;44.686;37.628;2022-12-18T09:11:00;15.10;90.75
76857;DHT22;66179;44.686;37.628;2022-12-18T09:13:27;15.12;90.60
76857;DHT22;66179;44.686;37.628;2022-12-18T09:15:54;15.14;90.27
76857;DHT22;66179;44.686;37.628;2022-12-18T09:18:23;15.23;90.29
76857;DHT22;66179;44.686;37.628;2022-12-18T09:20:50;15.31;90.13
76857;DHT22;66179;44.686;37.628;2022-12-18T09:23:18;15.34;89.67
76857;DHT22;66179;44.686;37.628;2022-12-18T09:25:45;15.31;89.83
76857;DHT22;66179;44.686;37.628;2022-12-18T09:28:16;15.38;89.82
76857;DHT22;66179;44.686;37.628;2022-12-18T09:30:46;15.39;89.79
76857;DHT22;66179;44.686;37.628;2022-12-18T09:33:13;15.44;89.89
76857;DHT22;66179;44.686;37.628;2022-12-18T09:35:41;15.34;90.17
76857;DHT22;66179;44.686;37.628;2022-12-18T09:38:13;15.36;89.83
76857;DHT22;66179;44.686;37.628;2022-12-18T09:40:49;15.36;89.90
76857;DHT22;66179;44.686;37.628;2022-12-18T09:43:30;15.40;89.72
76857;DHT22;66179;44.686;37.628;2022-12-18T09:46:04;15.33;89.65
76857;DHT22;66179;44.686;37.628;2022-12-18T09:48:35;15.24;90.34
76857;DHT22;66179;44.686;37.628;2022-12-18T09:54:07;15.17;90.89
76857;DHT22;66179;44.686;37.628;2022-12-18T09:56:41;15.21;91.00
76857;DHT22;66179;44.686;37.628;2022-12-18T09:59:27;15.19;91.19
76857;DHT22;66179;44.686;37.628;2022-12-18T10:01:56;15.12;91.34
76857;DHT22;66179;44.686;37.628;2022-12-18T10:04:24;15.12;91.35
76857;DHT22;66179;44.686;37.628;2022-12-18T10:07:13;15.08;91.31
76857;DHT22;66179;44.686;37.628;2022-12-18T10:09:55;15.04;91.50
76857;DHT22;66179;44.686;37.628;2022-12-18T10:15:27;15.03;91.48
76857;DHT22;66179;44.686;37.628;2022-12-18T10:20:41;15.07;91.76
76857;DHT22;66179;44.686;37.628;2022-12-18T10:26:01;15.03;92.08
76857;DHT22;66179;44.686;37.628;2022-12-18T10:28:30;15.01;91.79
76857;DHT22;66179;44.686;37.628;2022-12-18T10:30:58;14.99;92.22
76857;DHT22;66179;44.686;37.628;2022-12-18T10:33:29;14.92;92.69
76857;DHT22;66179;44.686;37.628;2022-12-18T10:35:55;14.95;92.50
76857;DHT22;66179;44.686;37.628;2022-12-18T10:38:27;14.96;92.43
76857;DHT22;66179;44.686;37.628;2022-12-18T10:43:30;15.04;92.17
76857;DHT22;66179;44.686;37.628;2022-12-18T10:51:08;15.12;91.80
76857;DHT22;66179;44.686;37.628;2022-12-18T10:53:36;15.12;91.92
76857;DHT22;66179;44.686;37.628;2022-12-18T10:56:05;15.10;91.79
76857;DHT22;66179;44.686;37.628;2022-12-18T10:58:36;15.07;92.21
76857;DHT22;66179;44.686;37.628;2022-12-18T11:01:12;15.04;92.34
76857;DHT22;66179;44.686;37.628;2022-12-18T11:03:46;15.08;92.18
76857;DHT22;66179;44.686;37.628;2022-12-18T11:06:15;15.13;91.78
76857;DHT22;66179;44.686;37.628;2022-12-18T11:08:46;15.16;91.02
76857;DHT22;66179;44.686;37.628;2022-12-18T11:11:24;15.14;91.17
76857;DHT22;66179;44.686;37.628;2022-12-18T11:14:06;15.19;90.89
76857;DHT22;66179;44.686;37.628;2022-12-18T11:16:48;15.25;90.69
76857;DHT22;66179;44.686;37.628;2022-12-18T11:19:35;15.15;91.43
76857;DHT22;66179;44.686;37.628;2022-12-18T11:22:26;15.14;91.76
76857;DHT22;66179;44.686;37.628;2022-12-18T11:24:58;15.10;91.98
76857;DHT22;66179;44.686;37.628;2022-12-18T11:27:26;15.08;92.48
76857;DHT22;66179;44.686;37.628;2022-12-18T11:30:06;15.07;92.82
76857;DHT22;66179;44.686;37.628;2022-12-18T11:32:43;15.10;92.70
76857;DHT22;66179;44.686;37.628;2022-12-18T11:37:55;14.77;89.47
76857;DHT22;66179;44.686;37.628;2022-12-18T11:40:38;14.50;89.97
76857;DHT22;66179;44.686;37.628;2022-12-18T11:43:20;14.24;90.31
76857;DHT22;66179;44.686;37.628;2022-12-18T11:46:03;14.07;90.92
76857;DHT22;66179;44.686;37.628;2022-12-18T11:48:34;13.91;91.35
76857;DHT22;66179;44.686;37.628;2022-12-18T11:51:08;13.77;91.87
76857;DHT22;66179;44.686;37.628;2022-12-18T11:53:36;13.69;91.44
76857;DHT22;66179;44.686;37.628;2022-12-18T11:56:33;13.53;91.60
76857;DHT22;66179;44.686;37.628;2022-12-18T12:10:01;13.09;90.92
76857;DHT22;66179;44.686;37.628;2022-12-18T12:15:27;12.82;91.15
76857;DHT22;66179;44.686;37.628;2022-12-18T12:23:54;12.55;91.27
76857;DHT22;66179;44.686;37.628;2022-12-18T12:34:47;12.18;91.33
76857;DHT22;66179;44.686;37.628;2022-12-18T12:37:25;12.18;91.09
76857;DHT22;66179;44.686;37.628;2022-12-18T12:39:56;12.18;91.62
76857;DHT22;66179;44.686;37.628;2022-12-18T12:42:33;12.17;91.37
76857;DHT22;66179;44.686;37.628;2022-12-18T12:45:28;12.15;90.77
76857;DHT22;66179;44.686;37.628;2022-12-18T12:47:58;12.08;90.69
76857;DHT22;66179;44.686;37.628;2022-12-18T12:50:25;12.01;91.14
76857;DHT22;66179;44.686;37.628;2022-12-18T12:52:54;11.99;91.32
76857;DHT22;66179;44.686;37.628;2022-12-18T12:55:28;11.99;91.08
76857;DHT22;66179;44.686;37.628;2022-12-18T12:58:19;11.91;91.20
76857;DHT22;66179;44.686;37.628;2022-12-18T13:04:20;11.76;91.21
76857;DHT22;66179;44.686;37.628;2022-12-18T13:12:53;11.57;91.38
76857;DHT22;66179;44.686;37.628;2022-12-18T13:15:27;11.53;91.52
76857;DHT22;66179;44.686;37.628;2022-12-18T13:20:39;11.34;91.56
76857;DHT22;66179;44.686;37.628;2022-12-18T13:25:53;11.01;92.55
76857;DHT22;66179;44.686;37.628;2022-12-18T13:31:03;10.86;93.02
76857;DHT22;66179;44.686;37.628;2022-12-18T13:33:34;10.77;92.88
76857;DHT22;66179;44.686;37.628;2022-12-18T13:38:43;10.55;92.83
76857;DHT22;66179;44.686;37.628;2022-12-18T13:43:54;10.40;92.98
76857;DHT22;66179;44.686;37.628;2022-12-18T13:46:28;10.25;93.45
76857;DHT22;66179;44.686;37.628;2022-12-18T13:49:17;10.15;93.00
76857;DHT22;66179;44.686;37.628;2022-12-18T13:51:51;10.05;93.66
76857;DHT22;66179;44.686;37.628;2022-12-18T13:54:37;9.97;94.09
76857;DHT22;66179;44.686;37.628;2022-12-18T13:57:29;9.89;94.10
76857;DHT22;66179;44.686;37.628;2022-12-18T13:59:58;9.79;94.07
76857;DHT22;66179;44.686;37.628;2022-12-18T14:02:27;9.70;94.43
76857;DHT22;66179;44.686;37.628;2022-12-18T14:04:54;9.71;94.50
76857;DHT22;66179;44.686;37.628;2022-12-18T14:07:25;9.62;94.55
76857;DHT22;66179;44.686;37.628;2022-12-18T14:09:55;9.56;95.03
76857;DHT22;66179;44.686;37.628;2022-12-18T14:12:33;9.48;95.30
76857;DHT22;66179;44.686;37.628;2022-12-18T14:15:40;9.37;95.33
76857;DHT22;66179;44.686;37.628;2022-12-18T14:21:00;9.33;95.23
76857;DHT22;66179;44.686;37.628;2022-12-18T14:23:37;9.30;94.22
76857;DHT22;66179;44.686;37.628;2022-12-18T14:26:24;9.24;94.61
76857;DHT22;66179;44.686;37.628;2022-12-18T14:28:53;9.16;94.41
76857;DHT22;66179;44.686;37.628;2022-12-18T14:31:22;9.16;94.11
76857;DHT22;66179;44.686;37.628;2022-12-18T14:33:50;9.07;93.88
76857;DHT22;66179;44.686;37.628;2022-12-18T14:36:20;8.97;94.17
76857;DHT22;66179;44.686;37.628;2022-12-18T14:38:57;8.93;94.59
76857;DHT22;66179;44.686;37.628;2022-12-18T14:41:25;8.89;94.71
76857;DHT22;66179;44.686;37.628;2022-12-18T14:43:53;8.78;94.89
76857;DHT22;66179;44.686;37.628;2022-12-18T14:49:16;8.73;94.75
76857;DHT22;66179;44.686;37.628;2022-12-18T14:52:23;8.71;94.51
76857;DHT22;66179;44.686;37.628;2022-12-18T14:54:53;8.67;94.11
76857;DHT22;66179;44.686;37.628;2022-12-18T14:57:28;8.65;94.04
76857;DHT22;66179;44.686;37.628;2022-12-18T15:00:14;8.64;94.20
76857;DHT22;66179;44.686;37.628;2022-12-18T15:02:43;8.60;93.75
76857;DHT22;66179;44.686;37.628;2022-12-18T15:05:29;8.55;93.75
76857;DHT22;66179;44.686;37.628;2022-12-18T15:07:58;8.47;93.46
76857;DHT22;66179;44.686;37.628;2022-12-18T15:10:30;8.41;93.57
76857;DHT22;66179;44.686;37.628;2022-12-18T15:18:00;8.17;93.99
76857;DHT22;66179;44.686;37.628;2022-12-18T15:20:30;8.08;93.95
76857;DHT22;66179;44.686;37.628;2022-12-18T15:22:57;8.05;93.98
76857;DHT22;66179;44.686;37.628;2022-12-18T15:25:32;8.03;93.90
76857;DHT22;66179;44.686;37.628;2022-12-18T15:28:00;7.96;93.53
76857;DHT22;66179;44.686;37.628;2022-12-18T15:30:27;7.96;93.47
76857;DHT22;66179;44.686;37.628;2022-12-18T15:33:22;7.94;93.77
76857;DHT22;66179;44.686;37.628;2022-12-18T15:35:56;7.85;93.30
76857;DHT22;66179;44.686;37.628;2022-12-18T15:38:23;7.81;93.36
76857;DHT22;66179;44.686;37.628;2022-12-18T15:40:49;7.72;93.62
76857;DHT22;66179;44.686;37.628;2022-12-18T15:43:16;7.64;93.80
76857;DHT22;66179;44.686;37.628;2022-12-18T15:46:13;7.60;93.74
76857;DHT22;66179;44.686;37.628;2022-12-18T15:48:52;7.52;92.95
76857;DHT22;66179;44.686;37.628;2022-12-18T15:51:35;7.43;93.85
76857;DHT22;66179;44.686;37.628;2022-12-18T15:54:05;7.40;93.33
76857;DHT22;66179;44.686;37.628;2022-12-18T15:56:32;7.30;92.98
76857;DHT22;66179;44.686;37.628;2022-12-18T15:59:19;7.32;93.05
76857;DHT22;66179;44.686;37.628;2022-12-18T16:01:48;7.24;92.99
76857;DHT22;66179;44.686;37.628;2022-12-18T16:04:17;7.20;93.30
76857;DHT22;66179;44.686;37.628;2022-12-18T16:06:47;7.20;93.95
76857;DHT22;66179;44.686;37.628;2022-12-18T16:09:13;7.22;93.32
76857;DHT22;66179;44.686;37.628;2022-12-18T16:11:42;7.19;93.40
76857;DHT22;66179;44.686;37.628;2022-12-18T16:16:49;7.13;93.33
76857;DHT22;66179;44.686;37.628;2022-12-18T16:19:16;7.09;93.67
76857;DHT22;66179;44.686;37.628;2022-12-18T16:21:43;7.02;94.14
76857;DHT22;66179;44.686;37.628;2022-12-18T16:24:18;6.98;93.97
76857;DHT22;66179;44.686;37.628;2022-12-18T16:29:51;6.91;94.49
76857;DHT22;66179;44.686;37.628;2022-12-18T16:32:20;6.89;94.37
76857;DHT22;66179;44.686;37.628;2022-12-18T16:34:47;6.86;94.24
76857;DHT22;66179;44.686;37.628;2022-12-18T16:37:15;6.84;93.47
76857;DHT22;66179;44.686;37.628;2022-12-18T16:39:42;6.82;93.43
76857;DHT22;66179;44.686;37.628;2022-12-18T16:42:17;6.79;92.89
76857;DHT22;66179;44.686;37.628;2022-12-18T16:44:46;6.76;92.62
76857;DHT22;66179;44.686;37.628;2022-12-18T16:47:13;6.76;92.66
76857;DHT22;66179;44.686;37.628;2022-12-18T16:49:42;6.79;93.03
76857;DHT22;66179;44.686;37.628;2022-12-18T16:52:13;6.72;91.66
76857;DHT22;66179;44.686;37.628;2022-12-18T16:54:39;6.72;92.29
76857;DHT22;66179;44.686;37.628;2022-12-18T16:57:06;6.69;91.57
76857;DHT22;66179;44.686;37.628;2022-12-18T16:59:32;6.68;92.01
76857;DHT22;66179;44.686;37.628;2022-12-18T17:02:03;6.64;91.98
76857;DHT22;66179;44.686;37.628;2022-12-18T17:04:30;6.61;91.87
76857;DHT22;66179;44.686;37.628;2022-12-18T17:06:56;6.58;91.83
76857;DHT22;66179;44.686;37.628;2022-12-18T17:09:23;6.58;92.59
76857;DHT22;66179;44.686;37.628;2022-12-18T17:11:51;6.54;92.87
76857;DHT22;66179;44.686;37.628;2022-12-18T17:14:19;6.55;92.61
76857;DHT22;66179;44.686;37.628;2022-12-18T17:16:46;6.52;92.52
76857;DHT22;66179;44.686;37.628;2022-12-18T17:19:13;6.52;92.63
76857;DHT22;66179;44.686;37.628;2022-12-18T17:21:43;6.52;92.82
76857;DHT22;66179;44.686;37.628;2022-12-18T17:24:09;6.51;93.16
76857;DHT22;66179;44.686;37.628;2022-12-18T17:26:36;6.54;92.92
76857;DHT22;66179;44.686;37.628;2022-12-18T17:29:03;6.56;92.76
76857;DHT22;66179;44.686;37.628;2022-12-18T17:31:30;6.57;92.92
76857;DHT22;66179;44.686;37.628;2022-12-18T17:33:57;6.56;93.04
76857;DHT22;66179;44.686;37.628;2022-12-18T17:36:24;6.58;92.75